Time;durP1;ratioP1;P1;durP2;ratioP2;P2;SDS_P1;SDS_P2;PMS_P1;PMS_P2;Temp;Humidity;BMP_temperature;BMP_pressure;BME280_temperature;BME280_humidity;BME280_pressure;Samples;Min_cycle;Max_cycle;Signal;HPM_P1;HPM_P2
2021/01/01 00:01:16;;;;;;;151.70;95.28;;;;;;;2.15;94.95;99176.97;5056995;28;20176;-68
2021/01/01 00:03:42;;;;;;;154.90;93.70;;;;;;;2.25;94.14;99198.50;5056943;28;20456;-74
2021/01/01 00:06:10;;;;;;;164.02;102.78;;;;;;;2.14;94.85;99199.78;5059912;28;20064;-74
2021/01/01 00:08:37;;;;;;;166.63;103.40;;;;;;;2.14;94.99;99206.84;5055684;28;20045;-71
2021/01/01 00:11:03;;;;;;;174.40;109.13;;;;;;;2.10;95.25;99203.50;5057258;28;20052;-70
2021/01/01 00:13:29;;;;;;;181.73;110.22;;;;;;;2.14;95.33;99206.84;5058549;28;20405;-72
2021/01/01 00:15:55;;;;;;;174.50;110.03;;;;;;;2.14;95.18;99209.47;5068376;28;20446;-71
2021/01/01 00:18:21;;;;;;;173.20;106.22;;;;;;;2.11;95.33;99206.97;5064725;28;20130;-75
2021/01/01 00:20:47;;;;;;;156.73;98.38;;;;;;;2.22;94.77;99215.28;5057694;28;20049;-70
2021/01/01 00:23:13;;;;;;;152.38;95.47;;;;;;;2.11;94.94;99210.47;5056747;28;20060;-71
2021/01/01 00:25:40;;;;;;;156.07;97.07;;;;;;;2.10;95.26;99223.69;5056591;28;20446;-73
2021/01/01 00:28:06;;;;;;;135.50;84.72;;;;;;;2.04;95.27;99206.38;5056908;28;20057;-70
2021/01/01 00:30:32;;;;;;;128.25;77.38;;;;;;;2.03;95.46;99226.56;5059114;28;20067;-72
2021/01/01 00:32:58;;;;;;;121.32;75.90;;;;;;;2.02;95.83;99224.00;5047600;28;20110;-72
2021/01/01 00:35:24;;;;;;;116.97;70.30;;;;;;;2.02;95.37;99224.00;5034889;28;20050;-70
2021/01/01 00:37:50;;;;;;;120.03;70.78;;;;;;;2.05;95.88;99231.78;5037896;28;20102;-72
2021/01/01 00:40:16;;;;;;;118.22;69.32;;;;;;;2.07;95.76;99231.72;5049672;28;20049;-70
2021/01/01 00:42:43;;;;;;;125.63;73.57;;;;;;;2.11;96.00;99230.66;5047873;28;20340;-71
2021/01/01 00:45:10;;;;;;;120.38;71.63;;;;;;;2.10;95.45;99237.72;5045412;28;20367;-72
2021/01/01 00:47:36;;;;;;;125.15;71.53;;;;;;;2.09;95.70;99236.00;5020254;28;20049;-70
2021/01/01 00:50:04;;;;;;;120.78;67.13;;;;;;;2.12;95.48;99235.03;5046771;28;20045;-70
2021/01/01 00:52:31;;;;;;;112.90;64.95;;;;;;;2.07;95.47;99231.72;5059009;28;20079;-72
2021/01/01 00:54:57;;;;;;;108.28;64.03;;;;;;;2.13;95.15;99228.84;5063746;28;20433;-72
2021/01/01 00:57:23;;;;;;;102.95;62.13;;;;;;;2.19;95.41;99235.59;5038949;28;20060;-71
2021/01/01 00:59:49;;;;;;;114.43;63.08;;;;;;;2.18;95.63;99232.09;5056112;28;20103;-72
2021/01/01 01:02:15;;;;;;;106.55;62.13;;;;;;;2.13;95.75;99232.31;5055898;28;20521;-70
2021/01/01 01:04:41;;;;;;;100.05;60.22;;;;;;;2.17;95.54;99243.56;5038574;28;20049;-73
2021/01/01 01:07:08;;;;;;;96.60;55.80;;;;;;;2.10;95.71;99244.72;5056025;28;20113;-71
2021/01/01 01:09:34;;;;;;;102.45;56.75;;;;;;;2.09;95.66;99248.28;5055984;28;20095;-70
2021/01/01 01:12:00;;;;;;;93.57;56.38;;;;;;;2.13;95.93;99242.84;5055836;28;20063;-71
2021/01/01 01:14:26;;;;;;;99.05;53.58;;;;;;;2.17;95.53;99244.44;5056218;28;20107;-69
2021/01/01 01:16:52;;;;;;;94.25;53.88;;;;;;;2.12;95.60;99250.81;5055834;28;20057;-70
2021/01/01 01:19:18;;;;;;;95.95;55.03;;;;;;;2.12;95.68;99246.38;5038523;28;20053;-73
2021/01/01 01:21:44;;;;;;;91.88;55.47;;;;;;;2.15;95.39;99251.53;5055645;28;20500;-69
2021/01/01 01:24:10;;;;;;;96.63;56.95;;;;;;;2.13;95.70;99249.91;5054722;28;20056;-71
2021/01/01 01:26:36;;;;;;;99.13;58.47;;;;;;;2.14;95.88;99265.59;5055993;28;20053;-72
2021/01/01 01:29:03;;;;;;;106.82;62.60;;;;;;;2.14;nan;99262.13;5055628;28;20465;-70
2021/01/01 01:31:29;;;;;;;97.10;59.00;;;;;;;2.19;95.62;99257.53;5055522;28;20063;-70
2021/01/01 01:33:55;;;;;;;100.57;60.00;;;;;;;2.17;95.38;99256.72;5056037;28;20061;-70
2021/01/01 01:36:22;;;;;;;116.20;63.30;;;;;;;2.09;95.73;99261.44;5055719;28;20052;-69
2021/01/01 01:38:48;;;;;;;107.35;64.50;;;;;;;2.09;95.76;99264.97;5055810;28;20045;-68
2021/01/01 01:41:14;;;;;;;106.75;61.22;;;;;;;2.07;95.72;99272.03;5055329;28;20481;-70
2021/01/01 01:43:40;;;;;;;99.13;58.30;;;;;;;2.02;95.55;99271.38;5055788;28;20060;-69
2021/01/01 01:46:06;;;;;;;108.38;61.70;;;;;;;1.97;96.23;99268.06;5055632;28;20049;-70
2021/01/01 01:48:36;;;;;;;100.32;59.67;;;;;;;1.98;96.16;99273.28;5037779;28;20057;-70
2021/01/01 01:51:06;;;;;;;104.35;60.75;;;;;;;1.99;96.31;99275.00;5055477;28;20153;-73
2021/01/01 01:53:40;;;;;;;96.80;58.13;;;;;;;1.99;96.08;99271.50;5055478;28;20057;-70
2021/01/01 01:56:07;;;;;;;93.40;57.72;;;;;;;2.03;96.02;99284.47;5055408;28;20102;-69
2021/01/01 01:58:34;;;;;;;93.90;55.75;;;;;;;2.02;95.91;99277.50;5055561;28;20099;-69
2021/01/01 02:01:01;;;;;;;93.30;55.38;;;;;;;2.03;96.02;99281.84;5055131;28;20053;-70
2021/01/01 02:03:28;;;;;;;91.72;54.67;;;;;;;2.06;95.93;99290.53;5055420;28;20056;-69
2021/01/01 02:05:59;;;;;;;89.10;52.08;;;;;;;2.07;95.65;99282.56;5054061;28;20045;-72
2021/01/01 02:08:26;;;;;;;89.03;52.15;;;;;;;2.05;95.95;99281.78;5055137;28;20139;-69
2021/01/01 02:10:55;;;;;;;89.22;53.17;;;;;;;2.00;96.01;99294.25;5037472;28;20394;-70
2021/01/01 02:13:23;;;;;;;89.03;52.58;;;;;;;2.01;95.91;99291.56;5055491;28;20633;-69
2021/01/01 02:15:49;;;;;;;90.57;52.38;;;;;;;1.81;96.10;99266.06;5055297;28;20044;-71
2021/01/01 02:18:38;;;;;;;86.13;51.92;;;;;;;2.04;95.93;99301.13;5037761;28;20123;-70
2021/01/01 02:21:06;;;;;;;89.18;50.85;;;;;;;2.05;95.70;99302.00;5054914;28;20060;-71
2021/01/01 02:23:34;;;;;;;83.28;50.13;;;;;;;2.06;95.75;99311.59;5037549;28;20048;-71
2021/01/01 02:26:01;;;;;;;84.78;50.03;;;;;;;2.08;95.74;99309.75;5055346;28;20053;-71
2021/01/01 02:28:27;;;;;;;85.97;49.53;;;;;;;2.03;95.60;99297.63;5055113;28;20083;-69
2021/01/01 02:30:53;;;;;;;83.53;51.25;;;;;;;2.12;95.49;99311.38;5054588;28;20060;-71
2021/01/01 02:33:19;;;;;;;74.07;45.65;;;;;;;2.16;95.47;99315.56;5055304;28;20049;-70
2021/01/01 02:35:45;;;;;;;81.10;46.50;;;;;;;2.14;95.44;99322.69;5055191;28;20126;-72
2021/01/01 02:38:12;;;;;;;78.65;46.40;;;;;;;2.11;95.36;99312.25;5055095;28;20178;-70
2021/01/01 02:40:38;;;;;;;75.90;46.45;;;;;;;2.12;95.31;99319.25;5054875;28;20041;-72
2021/01/01 02:43:04;;;;;;;78.95;46.13;;;;;;;2.06;94.37;99320.34;5054820;28;20103;-72
2021/01/01 02:45:30;;;;;;;79.18;46.50;;;;;;;1.98;95.16;99323.28;5055206;28;20106;-71
2021/01/01 02:48:03;;;;;;;74.03;42.70;;;;;;;1.93;94.91;99317.34;5037550;28;20045;-71
2021/01/01 02:50:29;;;;;;;73.47;43.80;;;;;;;1.86;94.82;99316.72;5054687;28;20107;-71
2021/01/01 02:52:55;;;;;;;80.10;47.75;;;;;;;1.89;94.99;99323.63;5055015;28;20110;-71
2021/01/01 02:55:21;;;;;;;78.45;45.17;;;;;;;1.93;94.96;99324.38;5054822;28;20446;-70
2021/01/01 02:57:47;;;;;;;69.40;41.72;;;;;;;1.96;94.97;99324.25;5054953;28;20130;-70
2021/01/01 03:00:14;;;;;;;75.90;44.03;;;;;;;1.72;95.08;99301.47;5037470;28;20041;-73
2021/01/01 03:02:40;;;;;;;80.45;42.70;;;;;;;1.87;94.89;99320.22;5054648;28;20080;-73
2021/01/01 03:05:07;;;;;;;66.88;39.50;;;;;;;1.85;94.16;99329.94;5054431;28;20049;-70
2021/01/01 03:07:33;;;;;;;69.35;41.65;;;;;;;1.84;94.58;99325.56;5054509;28;20147;-70
2021/01/01 03:09:59;;;;;;;67.00;38.88;;;;;;;1.82;94.15;99316.88;5054622;28;20041;-70
2021/01/01 03:12:26;;;;;;;62.42;36.17;;;;;;;1.84;93.68;99320.31;5054508;28;20057;-70
2021/01/01 03:14:52;;;;;;;62.53;38.03;;;;;;;1.70;93.97;99312.97;5054508;28;20370;-70
2021/01/01 03:17:18;;;;;;;61.63;34.10;;;;;;;1.81;94.00;99330.97;5054481;28;20061;-70
2021/01/01 03:19:44;;;;;;;60.95;35.72;;;;;;;1.79;93.67;99336.28;5053347;28;20048;-70
2021/01/01 03:22:10;;;;;;;56.85;34.83;;;;;;;1.76;93.72;99329.34;5036621;28;20063;-70
2021/01/01 03:24:36;;;;;;;58.45;34.33;;;;;;;1.65;93.43;99315.78;5054318;28;20107;-70
2021/01/01 03:27:02;;;;;;;59.25;34.22;;;;;;;1.80;93.88;99331.88;5053552;28;20389;-70
2021/01/01 03:29:28;;;;;;;57.40;34.00;;;;;;;1.72;93.24;99322.53;5020680;28;20057;-70
2021/01/01 03:31:54;;;;;;;59.08;32.90;;;;;;;1.75;93.40;99322.38;5054579;28;20053;-70
2021/01/01 03:34:21;;;;;;;55.28;33.45;;;;;;;1.81;93.03;99333.59;5054390;28;20049;-70
2021/01/01 03:36:47;;;;;;;49.85;31.85;;;;;;;1.78;93.09;99325.84;5054550;28;20107;-70
2021/01/01 03:39:13;;;;;;;59.60;33.10;;;;;;;1.79;93.45;99327.56;5054359;28;20049;-70
2021/01/01 03:41:39;;;;;;;45.92;28.17;;;;;;;1.72;92.68;99330.41;5036798;28;20107;-70
2021/01/01 03:44:05;;;;;;;53.28;29.20;;;;;;;1.57;92.15;99302.06;5056725;28;20389;-70
2021/01/01 03:46:31;;;;;;;55.47;31.40;;;;;;;1.78;92.90;99334.56;5057804;28;20053;-70
2021/01/01 03:48:57;;;;;;;48.10;28.98;;;;;;;1.81;92.28;99328.34;5056849;28;20328;-70
2021/01/01 03:51:27;;;;;;;52.72;29.13;;;;;;;1.85;92.89;99332.56;5057551;28;20049;-70
2021/01/01 03:53:53;;;;;;;50.58;28.95;;;;;;;1.86;92.52;99324.59;5057594;28;20450;-70
2021/01/01 03:56:19;;;;;;;54.90;29.67;;;;;;;1.85;92.46;99329.94;5057608;28;20049;-70
2021/01/01 03:58:45;;;;;;;47.55;28.10;;;;;;;1.86;91.93;99331.66;5039758;28;20053;-70
2021/01/01 04:01:15;;;;;;;52.13;29.20;;;;;;;1.81;91.90;99336.22;5057442;28;20083;-70
2021/01/01 04:03:41;;;;;;;50.88;31.27;;;;;;;1.84;92.26;99330.84;5056147;28;20060;-70
2021/01/01 04:06:07;;;;;;;48.63;30.42;;;;;;;1.81;91.93;99325.72;5057315;28;20049;-70
2021/01/01 04:08:33;;;;;;;50.13;30.15;;;;;;;1.76;91.97;99334.63;5057582;28;20072;-70
2021/01/01 04:11:00;;;;;;;53.85;30.48;;;;;;;1.82;91.91;99332.69;5057517;28;20052;-70
2021/01/01 04:13:26;;;;;;;55.00;28.77;;;;;;;1.78;92.10;99324.03;5057470;28;20187;-70
2021/01/01 04:15:52;;;;;;;53.42;31.17;;;;;;;1.82;92.30;99332.69;5056396;28;20103;-70
2021/01/01 04:18:18;;;;;;;56.70;31.08;;;;;;;1.78;92.59;99336.38;5057399;28;20053;-70
2021/01/01 04:20:44;;;;;;;57.67;30.52;;;;;;;1.78;91.66;99331.09;5056049;28;20053;-70
2021/01/01 04:23:10;;;;;;;50.42;29.00;;;;;;;1.71;92.18;99326.06;5056019;28;20053;-70
2021/01/01 04:25:36;;;;;;;52.17;29.27;;;;;;;1.79;92.37;99338.06;5056981;28;20492;-70
2021/01/01 04:28:03;;;;;;;41.55;27.98;;;;;;;1.78;91.93;99339.84;5057304;28;20099;-70
2021/01/01 04:30:29;;;;;;;47.55;29.33;;;;;;;1.79;91.96;99341.53;5056994;28;20106;-70
2021/01/01 04:32:55;;;;;;;48.10;27.88;;;;;;;1.78;92.07;99342.47;5057195;28;20052;-70
2021/01/01 04:35:21;;;;;;;46.85;28.00;;;;;;;1.81;92.39;99342.38;5057134;28;20056;-70
2021/01/01 04:37:47;;;;;;;44.63;25.80;;;;;;;1.76;91.88;99347.78;5056920;28;20114;-70
2021/01/01 04:40:14;;;;;;;43.60;24.17;;;;;;;1.73;91.75;99344.41;5056604;28;20056;-70
2021/01/01 04:42:40;;;;;;;42.85;24.95;;;;;;;1.77;91.96;99351.28;5056723;28;20048;-70
2021/01/01 04:45:07;;;;;;;43.42;25.90;;;;;;;1.76;92.08;99350.41;5056828;28;20052;-69
2021/01/01 04:47:34;;;;;;;49.40;26.83;;;;;;;1.76;92.14;99345.16;5056855;28;20052;-70
2021/01/01 04:50:01;;;;;;;47.03;27.77;;;;;;;1.78;92.32;99354.78;5056922;28;20052;-70
2021/01/01 04:52:32;;;;;;;49.30;26.60;;;;;;;1.69;92.34;99348.94;5056839;28;20083;-70
2021/01/01 04:55:02;;;;;;;47.28;26.35;;;;;;;1.74;93.18;99352.25;5055379;28;20045;-70
2021/01/01 04:57:28;;;;;;;46.83;26.45;;;;;;;1.82;93.37;99357.22;5056356;28;20059;-70
2021/01/01 04:59:55;;;;;;;45.33;26.73;;;;;;;1.86;92.88;99357.97;5056299;28;20114;-70
2021/01/01 05:02:21;;;;;;;45.33;27.15;;;;;;;1.84;92.49;99357.16;5056285;28;20052;-70
2021/01/01 05:04:48;;;;;;;49.65;27.88;;;;;;;1.81;92.43;99357.28;5038982;28;20057;-70
2021/01/01 05:07:18;;;;;;;49.28;28.60;;;;;;;1.79;93.37;99359.97;5056246;28;20103;-70
2021/01/01 05:09:45;;;;;;;45.75;26.58;;;;;;;1.82;92.73;99359.88;5056306;28;20108;-70
2021/01/01 05:12:12;;;;;;;43.63;25.75;;;;;;;1.75;92.62;99359.22;5056094;28;20183;-70
2021/01/01 05:14:39;;;;;;;47.33;26.48;;;;;;;1.74;92.34;99352.25;5056351;28;20095;-70
2021/01/01 05:17:05;;;;;;;51.38;27.83;;;;;;;1.79;92.01;99353.84;5056214;28;20057;-70
2021/01/01 05:19:39;;;;;;;51.30;29.48;;;;;;;1.78;92.87;99358.25;5055917;28;20430;-70
2021/01/01 05:22:08;;;;;;;50.38;29.00;;;;;;;1.78;92.65;99347.72;5055772;28;20104;-70
2021/01/01 05:24:37;;;;;;;45.92;28.20;;;;;;;1.79;92.62;99356.50;5055704;28;20354;-70
2021/01/01 05:27:10;;;;;;;45.72;27.85;;;;;;;1.72;92.85;99350.59;5056146;28;20049;-70
2021/01/01 05:29:50;;;;;;;49.05;27.70;;;;;;;1.76;92.59;99358.31;5055816;28;20052;-70
2021/01/01 05:32:25;;;;;;;50.65;31.42;;;;;;;1.74;93.52;99356.66;5055792;28;20102;-70
2021/01/01 05:34:52;;;;;;;50.17;30.30;;;;;;;1.66;92.95;99353.44;5055537;28;20057;-70
2021/01/01 05:37:30;;;;;;;51.97;30.33;;;;;;;1.79;92.84;99359.97;5055955;28;20049;-71
2021/01/01 05:40:08;;;;;;;49.30;30.10;;;;;;;1.79;92.96;99367.84;5055827;28;20067;-71
2021/01/01 05:42:36;;;;;;;55.85;31.08;;;;;;;1.79;93.10;99372.28;5038060;28;20106;-70
2021/01/01 05:45:18;;;;;;;52.78;31.27;;;;;;;1.83;92.63;99373.84;5055498;28;20411;-70
2021/01/01 05:48:07;;;;;;;53.78;32.30;;;;;;;1.83;92.88;99376.50;5055405;28;20126;-70
2021/01/01 05:50:35;;;;;;;54.05;30.17;;;;;;;1.79;92.57;99373.13;5037724;28;20090;-70
2021/01/01 05:53:10;;;;;;;51.25;29.70;;;;;;;1.86;92.52;99379.03;5055623;28;20053;-71
2021/01/01 05:55:36;;;;;;;57.80;33.65;;;;;;;1.84;92.39;99380.84;5037681;28;20057;-70
2021/01/01 05:58:02;;;;;;;55.50;30.23;;;;;;;1.80;92.88;99379.25;5055280;28;20079;-70
2021/01/01 06:00:31;;;;;;;64.28;32.45;;;;;;;1.83;92.22;99392.28;5055518;28;20098;-70
2021/01/01 06:02:58;;;;;;;51.90;30.50;;;;;;;1.78;92.55;99383.72;5055466;28;20103;-69
2021/01/01 06:05:27;;;;;;;55.00;31.15;;;;;;;1.80;92.21;99402.94;5054795;28;20060;-70
2021/01/01 06:07:57;;;;;;;53.67;32.15;;;;;;;1.74;93.07;99409.28;5055405;28;20049;-70
2021/01/01 06:10:26;;;;;;;59.35;31.25;;;;;;;1.73;92.56;99418.94;5037328;28;20053;-70
2021/01/01 06:12:56;;;;;;;55.92;30.70;;;;;;;1.70;92.96;99418.19;5037534;28;20354;-70
2021/01/01 06:15:22;;;;;;;59.95;34.00;;;;;;;1.64;93.18;99424.53;5055105;28;20049;-70
2021/01/01 06:17:50;;;;;;;52.55;31.20;;;;;;;1.71;93.51;99419.91;5055307;28;20114;-70
2021/01/01 06:20:21;;;;;;;57.42;32.53;;;;;;;1.66;93.35;99412.19;5054757;28;20052;-70
2021/01/01 06:23:02;;;;;;;58.70;32.85;;;;;;;1.70;93.38;99429.56;5055029;28;20053;-70
2021/01/01 06:25:29;;;;;;;66.05;33.70;;;;;;;1.75;93.78;99427.63;5053944;28;20052;-70
2021/01/01 06:28:01;;;;;;;54.60;31.45;;;;;;;1.76;93.81;99429.34;5055064;28;20107;-70
2021/01/01 06:30:29;;;;;;;59.88;31.90;;;;;;;1.83;92.91;99435.25;5055052;28;20064;-70
2021/01/01 06:32:57;;;;;;;59.80;32.55;;;;;;;1.76;93.06;99428.50;5054867;28;20049;-70
2021/01/01 06:35:24;;;;;;;58.60;33.42;;;;;;;1.71;93.39;99423.41;5055063;28;20048;-71
2021/01/01 06:37:55;;;;;;;61.97;34.92;;;;;;;1.72;93.36;99440.91;5055120;28;20052;-70
2021/01/01 06:40:21;;;;;;;56.92;33.70;;;;;;;1.70;93.97;99442.72;5054659;28;20454;-70
2021/01/01 06:42:58;;;;;;;55.63;31.88;;;;;;;1.71;94.18;99441.81;5054946;28;20044;-70
2021/01/01 06:45:35;;;;;;;56.67;32.63;;;;;;;1.70;93.75;99450.59;5054719;28;20053;-70
2021/01/01 06:48:24;;;;;;;67.18;33.35;;;;;;;1.68;93.84;99455.06;5054507;28;20106;-70
2021/01/01 06:50:52;;;;;;;56.60;31.90;;;;;;;1.70;93.72;99460.28;5054199;28;20049;-70
2021/01/01 06:53:26;;;;;;;59.25;31.98;;;;;;;1.68;93.44;99459.50;5054697;28;20091;-71
2021/01/01 06:56:06;;;;;;;55.90;32.00;;;;;;;1.74;93.67;99462.75;5053520;28;20053;-70
2021/01/01 06:58:32;;;;;;;58.15;32.70;;;;;;;1.65;93.53;99462.22;5054528;28;20053;-70
2021/01/01 07:00:58;;;;;;;60.85;34.53;;;;;;;1.70;93.62;99460.28;5053335;28;20041;-70
2021/01/01 07:03:24;;;;;;;65.45;35.33;;;;;;;1.70;93.78;99465.56;5053866;28;20103;-70
2021/01/01 07:05:50;;;;;;;61.78;33.72;;;;;;;1.68;93.82;99468.22;5054650;28;20102;-70
2021/01/01 07:08:44;;;;;;;60.53;33.88;;;;;;;1.70;93.61;99476.91;5054692;28;20052;-70
2021/01/01 07:11:10;;;;;;;65.10;33.85;;;;;;;1.70;93.68;99473.44;5054340;28;20052;-70
2021/01/01 07:13:42;;;;;;;65.20;36.20;;;;;;;1.61;94.08;99478.13;5054793;28;20059;-70
2021/01/01 07:16:09;;;;;;;70.18;36.13;;;;;;;1.68;94.04;99478.75;5054261;28;20052;-70
2021/01/01 07:18:35;;;;;;;61.53;34.10;;;;;;;1.67;93.70;99482.28;5057983;28;20057;-69
2021/01/01 07:21:03;;;;;;;62.72;34.40;;;;;;;1.57;93.80;99486.19;5058207;28;20107;-70
2021/01/01 07:23:30;;;;;;;65.28;35.05;;;;;;;1.65;93.09;99485.88;5058252;28;20053;-70
2021/01/01 07:25:57;;;;;;;57.47;31.85;;;;;;;1.58;93.10;99477.38;5058288;28;20061;-70
2021/01/01 07:28:24;;;;;;;65.28;35.40;;;;;;;1.63;93.75;99494.69;5058125;28;20045;-70
2021/01/01 07:30:51;;;;;;;61.00;32.85;;;;;;;1.65;93.42;99492.03;5058262;28;20118;-70
2021/01/01 07:33:24;;;;;;;58.20;32.10;;;;;;;1.70;93.38;99490.06;5057967;28;20049;-70
2021/01/01 07:36:01;;;;;;;62.67;32.47;;;;;;;1.70;93.48;99492.69;5057953;28;20397;-70
2021/01/01 07:38:30;;;;;;;59.47;32.53;;;;;;;1.71;93.11;99483.03;5058135;28;20052;-70
2021/01/01 07:40:57;;;;;;;59.65;31.30;;;;;;;1.72;93.00;99492.66;5067243;28;20464;-72
2021/01/01 07:43:24;;;;;;;58.20;31.63;;;;;;;1.70;92.94;99489.22;5077699;28;20052;-73
2021/01/01 07:45:56;;;;;;;56.88;31.67;;;;;;;1.72;93.10;99496.16;5057305;28;20049;-74
2021/01/01 07:48:23;;;;;;;53.92;30.00;;;;;;;1.72;92.69;99501.41;5066007;28;20052;-75
2021/01/01 07:50:49;;;;;;;60.03;31.88;;;;;;;1.76;92.78;99496.91;5074933;28;20052;-74
2021/01/01 07:53:15;;;;;;;57.35;30.45;;;;;;;1.81;92.78;99499.38;5060256;28;20056;-74
2021/01/01 07:55:42;;;;;;;64.00;32.78;;;;;;;1.78;92.85;99499.50;5060119;28;20056;-73
2021/01/01 07:58:10;;;;;;;61.60;32.30;;;;;;;1.77;92.50;99503.88;5060073;28;20048;-73
2021/01/01 08:00:38;;;;;;;57.15;31.90;;;;;;;1.72;92.57;99498.78;5077529;28;20109;-75
2021/01/01 08:03:06;;;;;;;58.47;31.17;;;;;;;1.79;92.69;99501.22;5057351;28;20060;-74
2021/01/01 08:05:33;;;;;;;63.65;32.17;;;;;;;1.78;93.16;99502.97;5057267;28;20060;-72
2021/01/01 08:08:22;;;;;;;66.07;33.17;;;;;;;1.84;92.53;99508.00;5057051;28;20491;-70
2021/01/01 08:10:53;;;;;;;59.05;33.13;;;;;;;1.78;92.01;99504.75;5056207;28;20052;-72
2021/01/01 08:13:20;;;;;;;51.72;25.83;;;;;;;1.78;92.77;99507.38;5052529;28;20041;-71
2021/01/01 08:15:47;;;;;;;59.83;33.65;;;;;;;1.63;92.63;99499.09;5057134;28;20045;-73
2021/01/01 08:18:19;;;;;;;62.38;33.95;;;;;;;1.68;92.59;99510.31;5056670;28;20124;-71
2021/01/01 08:20:47;;;;;;;63.03;33.13;;;;;;;1.65;92.78;99512.19;5055532;28;20075;-74
2021/01/01 08:23:18;;;;;;;59.47;32.55;;;;;;;1.59;92.73;99516.75;5038800;28;20044;-72
2021/01/01 08:25:48;;;;;;;61.58;32.63;;;;;;;1.57;92.50;99508.06;5056913;28;20049;-72
2021/01/01 08:28:19;;;;;;;58.83;31.20;;;;;;;1.58;92.04;99515.03;5056302;28;20056;-73
2021/01/01 08:31:02;;;;;;;62.53;32.38;;;;;;;1.56;92.83;99518.63;5056122;28;20481;-71
2021/01/01 08:33:37;;;;;;;61.42;31.88;;;;;;;1.65;92.27;99522.72;5050354;28;20045;-71
2021/01/01 08:36:06;;;;;;;60.60;31.70;;;;;;;1.59;92.53;99527.28;5054877;28;20427;-70
2021/01/01 08:38:33;;;;;;;59.65;31.98;;;;;;;1.65;92.98;99526.22;5056192;28;20049;-70
2021/01/01 08:40:59;;;;;;;62.67;32.15;;;;;;;1.68;92.59;99528.72;5056406;28;20140;-71
2021/01/01 08:43:27;;;;;;;65.50;32.75;;;;;;;1.64;92.45;99524.50;5038636;28;20048;-71
2021/01/01 08:45:54;;;;;;;60.45;31.40;;;;;;;1.63;92.20;99531.53;5054983;28;20053;-70
2021/01/01 08:48:20;;;;;;;59.95;31.73;;;;;;;1.68;92.12;99538.41;5056232;28;20045;-70
2021/01/01 08:50:48;;;;;;;63.20;32.25;;;;;;;1.73;92.59;99532.06;5056425;28;20135;-70
2021/01/01 08:53:15;;;;;;;54.30;31.33;;;;;;;1.80;92.64;99543.22;5055668;28;20048;-73
2021/01/01 08:55:42;;;;;;;63.00;30.65;;;;;;;1.85;92.54;99538.66;5056326;28;20045;-72
2021/01/01 08:58:10;;;;;;;62.65;32.20;;;;;;;1.85;92.68;99545.72;5054546;28;20052;-71
2021/01/01 09:00:40;;;;;;;55.78;31.02;;;;;;;1.92;92.55;99547.22;5055496;28;20111;-71
2021/01/01 09:03:07;;;;;;;59.67;30.90;;;;;;;1.97;92.29;99552.31;5056071;28;20112;-70
2021/01/01 09:05:34;;;;;;;57.92;32.17;;;;;;;2.03;92.41;99549.47;5055778;28;20056;-70
2021/01/01 09:08:17;;;;;;;64.57;32.85;;;;;;;2.05;92.45;99555.53;5054690;28;20055;-73
2021/01/01 09:10:46;;;;;;;59.20;30.65;;;;;;;2.10;91.99;99553.59;5053738;28;20098;-71
2021/01/01 09:13:21;;;;;;;51.67;29.08;;;;;;;2.12;92.38;99559.66;5055213;28;20052;-70
2021/01/01 09:16:00;;;;;;;59.95;31.42;;;;;;;2.16;91.94;99557.78;5054197;28;20053;-70
2021/01/01 09:18:28;;;;;;;53.20;28.88;;;;;;;2.16;91.84;99552.50;5054287;28;20136;-71
2021/01/01 09:21:16;;;;;;;55.20;28.77;;;;;;;2.34;90.74;99565.94;5055454;28;20056;-70
2021/01/01 09:23:52;;;;;;;52.83;29.35;;;;;;;2.26;91.30;99564.44;5032827;28;20052;-75
2021/01/01 09:26:26;;;;;;;55.47;28.48;;;;;;;2.25;90.46;99557.47;5064286;28;20430;-71
2021/01/01 09:29:06;;;;;;;55.83;29.65;;;;;;;2.29;91.48;99568.75;5053344;28;20057;-71
2021/01/01 09:31:35;;;;;;;43.60;22.25;;;;;;;2.32;91.48;99568.63;5054525;28;20057;-73
2021/01/01 09:34:07;;;;;;;49.40;27.67;;;;;;;2.35;91.23;99568.53;5051533;28;20414;-71
2021/01/01 09:36:34;;;;;;;51.97;28.15;;;;;;;2.37;91.36;99573.72;5055347;28;20079;-71
2021/01/01 09:39:01;;;;;;;58.45;28.70;;;;;;;2.20;91.03;99554.13;5055404;28;20116;-72
2021/01/01 09:41:28;;;;;;;52.25;28.27;;;;;;;2.26;91.38;99566.22;5053661;28;20053;-71
2021/01/01 09:43:54;;;;;;;51.70;28.30;;;;;;;2.36;91.30;99574.63;5037728;28;20056;-71
2021/01/01 09:46:20;;;;;;;50.55;27.45;;;;;;;2.37;90.22;99571.09;5054962;28;20427;-70
2021/01/01 09:48:46;;;;;;;58.10;29.45;;;;;;;2.41;90.52;99584.06;5055281;28;20044;-72
2021/01/01 09:51:14;;;;;;;48.97;27.42;;;;;;;2.44;89.72;99585.75;5038149;28;20087;-70
2021/01/01 09:53:40;;;;;;;51.50;28.02;;;;;;;2.47;90.25;99587.41;5056726;28;20048;-72
2021/01/01 09:56:06;;;;;;;51.88;27.48;;;;;;;2.47;91.06;99595.31;5056602;28;20049;-72
2021/01/01 09:58:32;;;;;;;52.67;28.25;;;;;;;2.46;90.86;99585.69;5056519;28;20049;-72
2021/01/01 10:01:00;;;;;;;52.10;29.10;;;;;;;2.46;90.37;99597.09;5035973;28;20075;-70
2021/01/01 10:03:27;;;;;;;52.72;28.95;;;;;;;2.51;90.54;99595.13;5055871;28;20545;-71
2021/01/01 10:05:53;;;;;;;56.42;29.00;;;;;;;2.53;91.38;99593.31;5040435;28;20109;-71
2021/01/01 10:08:19;;;;;;;55.00;29.35;;;;;;;2.58;90.02;99586.09;5057306;28;20079;-72
2021/01/01 10:10:47;;;;;;;58.30;31.58;;;;;;;2.68;90.85;99594.50;5057134;28;20335;-73
2021/01/01 10:13:13;;;;;;;64.07;31.55;;;;;;;2.74;91.11;99588.16;5056544;28;20057;-71
2021/01/01 10:15:39;;;;;;;55.30;28.70;;;;;;;2.68;90.41;99583.13;5054471;28;20052;-71
2021/01/01 10:18:06;;;;;;;55.63;29.55;;;;;;;2.71;90.04;99578.59;5054599;28;20041;-71
2021/01/01 10:20:33;;;;;;;55.67;28.00;;;;;;;2.80;89.44;99601.13;5054607;28;20040;-72
2021/01/01 10:22:59;;;;;;;55.35;28.05;;;;;;;3.00;89.43;99599.50;5048554;28;20052;-73
2021/01/01 10:25:26;;;;;;;52.00;27.60;;;;;;;3.08;90.44;99594.78;5036777;28;20055;-74
2021/01/01 10:27:52;;;;;;;52.92;28.42;;;;;;;3.05;89.24;99605.44;5054870;28;20048;-73
2021/01/01 10:30:18;;;;;;;55.45;27.35;;;;;;;3.15;88.72;99599.81;5054096;28;20053;-72
2021/01/01 10:32:44;;;;;;;45.65;25.85;;;;;;;3.22;88.50;99593.38;5054572;28;20049;-70
2021/01/01 10:35:11;;;;;;;50.90;26.30;;;;;;;3.27;87.37;99594.03;5055162;28;20110;-70
2021/01/01 10:37:37;;;;;;;51.72;26.63;;;;;;;3.43;88.10;99596.06;5053912;28;20305;-72
2021/01/01 10:40:05;;;;;;;46.88;26.42;;;;;;;3.63;87.26;99593.47;5053575;28;20045;-68
2021/01/01 10:42:31;;;;;;;43.38;21.40;;;;;;;3.68;85.41;99601.19;5054013;28;20055;-71
2021/01/01 10:44:58;;;;;;;48.45;26.35;;;;;;;3.64;87.05;99589.91;5053919;28;20338;-70
2021/01/01 10:47:24;;;;;;;43.17;24.58;;;;;;;3.60;85.44;99588.31;5054468;28;20132;-71
2021/01/01 10:49:50;;;;;;;44.42;23.52;;;;;;;3.60;85.92;99596.22;5059619;28;20064;-70
2021/01/01 10:52:16;;;;;;;43.97;24.13;;;;;;;3.59;85.16;99591.88;5038263;28;20179;-71
2021/01/01 10:54:42;;;;;;;49.58;23.60;;;;;;;3.49;86.41;99586.09;5074225;28;20511;-70
2021/01/01 10:57:08;;;;;;;49.72;25.30;;;;;;;3.65;86.74;99593.41;5078550;28;20483;-74
2021/01/01 10:59:34;;;;;;;37.97;22.17;;;;;;;3.67;85.60;99568.66;5078861;28;20067;-72
2021/01/01 11:02:01;;;;;;;43.55;23.75;;;;;;;3.78;85.45;99597.25;5078452;28;20040;-71
2021/01/01 11:04:27;;;;;;;45.85;23.92;;;;;;;3.72;86.38;99580.81;5078664;28;20060;-69
2021/01/01 11:06:53;;;;;;;43.45;24.98;;;;;;;3.72;85.20;99594.00;5078508;28;20452;-69
2021/01/01 11:09:20;;;;;;;45.78;25.48;;;;;;;3.65;86.29;99578.41;5078518;28;20060;-69
2021/01/01 11:11:48;;;;;;;49.13;24.98;;;;;;;3.72;86.36;99586.94;5065442;28;20048;-71
2021/01/01 12:26:01;;;;;;;41.67;25.77;;;;;;;3.47;87.00;99564.22;5036999;28;20389;-73
2021/01/01 12:28:27;;;;;;;43.28;25.52;;;;;;;3.64;86.30;99570.56;5037296;28;20360;-73
2021/01/01 12:30:54;;;;;;;40.20;24.63;;;;;;;3.73;85.46;99574.59;5019701;28;20049;-71
2021/01/01 12:33:21;;;;;;;42.00;25.35;;;;;;;3.73;84.82;99569.31;5037517;28;20099;-70
2021/01/01 12:35:48;;;;;;;43.45;24.13;;;;;;;3.75;84.16;99568.34;5036780;28;20053;-70
2021/01/01 12:38:14;;;;;;;41.35;25.02;;;;;;;3.76;84.33;99575.31;5019776;28;20053;-70
2021/01/01 12:40:40;;;;;;;43.05;25.63;;;;;;;3.86;84.88;99569.69;5036890;28;20050;-70